Time;durP1;ratioP1;P1;durP2;ratioP2;P2;SDS_P1;SDS_P2;PMS_P1;PMS_P2;Temp;Humidity;BMP_temperature;BMP_pressure;BME280_temperature;BME280_humidity;BME280_pressure;Samples;Min_cycle;Max_cycle;Signal;HPM_P1;HPM_P2
2019/10/09 00:00:12;;;;;;;6.7;3.2;;;;;;;12.92;83.45215;933.6548;;;;
2019/10/09 00:02:43;;;;;;;7.2;3.4;;;;;;;12.82;83.98535;933.6259;;;;
2019/10/09 00:05:11;;;;;;;6.8;3.2;;;;;;;12.88;83.89258;933.5264;;;;
2019/10/09 00:07:36;;;;;;;6.8;2.9;;;;;;;12.98;83.22266;933.6775;;;;
2019/10/09 00:10:00;;;;;;;5.5;2.7;;;;;;;13.01;82.89453;933.8251;;;;
2019/10/09 00:12:26;;;;;;;6.1;2.8;;;;;;;13;82.94043;933.6669;;;;
2019/10/09 00:14:52;;;;;;;6.7;3.8;;;;;;;12.86;83.53125;933.6049;;;;
2019/10/09 00:17:16;;;;;;;9.8;3.9;;;;;;;12.73;84.73535;933.4272;;;;
2019/10/09 00:27:22;;;;;;;7.8;3.3;;;;;;;12.86;84.51855;933.6025;;;;
2019/10/09 00:30:03;;;;;;;7.2;3.3;;;;;;;12.77;84.74414;933.6331;;;;
2019/10/09 00:32:36;;;;;;;6.4;2.8;;;;;;;12.76;84.82227;933.7106;;;;
2019/10/09 00:34:57;;;;;;;6.3;2.7;;;;;;;12.87;84.25781;933.8141;;;;
2019/10/09 00:37:36;;;;;;;7.4;2.5;;;;;;;12.75;84.89941;933.932;;;;
2019/10/09 00:40:44;;;;;;;5.7;2.5;;;;;;;;;;;;;
2019/10/09 00:42:48;;;;;;;5.8;2.8;;;;;;;;;;;;;
2019/10/09 00:47:48;;;;;;;4.8;2.8;;;;;;;;;;;;;
2019/10/09 00:50:18;;;;;;;5.9;2.9;;;;;;;;;;;;;
2019/10/09 00:52:40;;;;;;;6.9;2.6;;;;;;;;;;;;;
2019/10/09 00:55:07;;;;;;;7.3;3;;;;;;;;;;;;;
2019/10/09 00:57:31;;;;;;;4.3;2.5;;;;;;;;;;;;;
2019/10/09 01:00:00;;;;;;;6.7;2.6;;;;;;;;;;;;;
2019/10/09 01:02:22;;;;;;;7.7;2.1;;;;;;;;;;;;;
2019/10/09 01:04:49;;;;;;;8.7;2.7;;;;;;;;;;;;;
2019/10/09 01:07:15;;;;;;;5.4;2.5;;;;;;;;;;;;;
2019/10/09 01:09:40;;;;;;;4.6;2.4;;;;;;;;;;;;;
2019/10/09 01:12:04;;;;;;;7.5;2.4;;;;;;;;;;;;;
2019/10/09 01:14:30;;;;;;;4.4;2.3;;;;;;;;;;;;;
2019/10/09 01:16:57;;;;;;;3.8;2.4;;;;;;;;;;;;;
2019/10/09 01:19:20;;;;;;;10.9;2.7;;;;;;;;;;;;;
2019/10/09 01:21:47;;;;;;;4.2;2.1;;;;;;;;;;;;;
2019/10/09 01:24:13;;;;;;;6.2;2.2;;;;;;;;;;;;;
2019/10/09 01:26:38;;;;;;;5;2.2;;;;;;;;;;;;;
2019/10/09 01:29:04;;;;;;;10.4;2.6;;;;;;;;;;;;;
2019/10/09 01:31:28;;;;;;;6.7;2.6;;;;;;;;;;;;;
2019/10/09 01:33:57;;;;;;;5.8;2.1;;;;;;;;;;;;;
2019/10/09 01:36:19;;;;;;;4.8;2.2;;;;;;;;;;;;;
2019/10/09 01:38:45;;;;;;;4;1.8;;;;;;;;;;;;;
2019/10/09 01:41:13;;;;;;;7;2;;;;;;;;;;;;;
2019/10/09 01:43:38;;;;;;;4.3;1.8;;;;;;;;;;;;;
2019/10/09 01:46:02;;;;;;;4.2;1.8;;;;;;;;;;;;;
2019/10/09 01:48:27;;;;;;;3.1;1.4;;;;;;;;;;;;;
2019/10/09 01:50:57;;;;;;;4.3;1.8;;;;;;;;;;;;;
2019/10/09 01:53:18;;;;;;;5.2;1.7;;;;;;;;;;;;;
2019/10/09 01:55:43;;;;;;;3.6;1.7;;;;;;;;;;;;;
2019/10/09 01:58:08;;;;;;;4.5;2.3;;;;;;;;;;;;;
2019/10/09 02:00:45;;;;;;;5.5;2.3;;;;;;;;;;;;;
2019/10/09 02:03:00;;;;;;;6.5;2.4;;;;;;;;;;;;;
2019/10/09 02:05:26;;;;;;;7.3;2.2;;;;;;;;;;;;;
2019/10/09 02:07:52;;;;;;;5.8;2.6;;;;;;;;;;;;;
2019/10/09 02:10:16;;;;;;;5;2.7;;;;;;;;;;;;;
2019/10/09 02:12:43;;;;;;;6.3;2.6;;;;;;;;;;;;;
2019/10/09 02:15:07;;;;;;;5.1;2.5;;;;;;;;;;;;;
2019/10/09 02:17:37;;;;;;;5.4;2.5;;;;;;;;;;;;;
2019/10/09 02:20:02;;;;;;;4.8;2.5;;;;;;;;;;;;;
2019/10/09 02:22:26;;;;;;;4.7;2.3;;;;;;;;;;;;;
2019/10/09 02:24:53;;;;;;;5.1;2.4;;;;;;;;;;;;;
2019/10/09 02:27:18;;;;;;;4.4;2.5;;;;;;;;;;;;;
2019/10/09 02:29:42;;;;;;;5.1;2.1;;;;;;;;;;;;;
2019/10/09 02:32:12;;;;;;;8.9;2.6;;;;;;;;;;;;;
2019/10/09 02:35:18;;;;;;;9.1;2.9;;;;;;;;;;;;;
2019/10/09 02:37:32;;;;;;;7.2;2.5;;;;;;;;;;;;;
2019/10/09 02:39:59;;;;;;;6.4;2.5;;;;;;;;;;;;;
2019/10/09 02:42:22;;;;;;;4.7;2.3;;;;;;;;;;;;;
2019/10/09 02:44:49;;;;;;;5;2.3;;;;;;;;;;;;;
2019/10/09 02:47:14;;;;;;;6.2;2.3;;;;;;;;;;;;;
2019/10/09 02:49:41;;;;;;;5.6;2;;;;;;;;;;;;;
2019/10/09 02:52:04;;;;;;;4.2;2;;;;;;;;;;;;;
2019/10/09 02:54:29;;;;;;;4;2.2;;;;;;;;;;;;;
2019/10/09 02:56:55;;;;;;;4.1;2.2;;;;;;;;;;;;;
2019/10/09 02:59:21;;;;;;;6.8;2.7;;;;;;;;;;;;;
2019/10/09 03:01:47;;;;;;;4;2.3;;;;;;;;;;;;;
2019/10/09 03:04:11;;;;;;;6.6;2.5;;;;;;;;;;;;;
2019/10/09 03:06:40;;;;;;;5.7;2.8;;;;;;;;;;;;;
2019/10/09 03:09:03;;;;;;;7;3.1;;;;;;;;;;;;;
2019/10/09 03:11:30;;;;;;;4.6;2.8;;;;;;;;;;;;;
2019/10/09 03:13:58;;;;;;;6.9;2.9;;;;;;;;;;;;;
2019/10/09 03:16:22;;;;;;;4.8;2.7;;;;;;;;;;;;;
2019/10/09 03:18:45;;;;;;;6.3;2.7;;;;;;;;;;;;;
2019/10/09 03:21:10;;;;;;;6.3;2.9;;;;;;;;;;;;;
2019/10/09 03:23:35;;;;;;;5.3;2.7;;;;;;;;;;;;;
2019/10/09 03:26:01;;;;;;;5.9;3.3;;;;;;;;;;;;;
2019/10/09 03:28:25;;;;;;;6;3.3;;;;;;;;;;;;;
2019/10/09 03:31:17;;;;;;;7.7;3.6;;;;;;;;;;;;;
2019/10/09 03:33:42;;;;;;;6.2;2.9;;;;;;;;;;;;;
2019/10/09 03:37:03;;;;;;;6.6;3;;;;;;;;;;;;;
2019/10/09 03:38:52;;;;;;;7.3;3.2;;;;;;;;;;;;;
2019/10/09 03:43:22;;;;;;;6.2;2.6;;;;;;;;;;;;;
2019/10/09 03:45:48;;;;;;;6;3;;;;;;;;;;;;;
2019/10/09 03:48:14;;;;;;;3.8;2.8;;;;;;;;;;;;;
2019/10/09 03:50:38;;;;;;;6.3;2.8;;;;;;;;;;;;;
2019/10/09 03:53:04;;;;;;;4;2.3;;;;;;;;;;;;;
2019/10/09 03:55:28;;;;;;;4.1;2.2;;;;;;;;;;;;;
2019/10/09 03:57:59;;;;;;;6.7;2.2;;;;;;;;;;;;;
2019/10/09 04:02:32;;;;;;;7.5;2.3;;;;;;;14.06;83.76367;935.1266;;;;
2019/10/09 04:05:00;;;;;;;3.5;2.1;;;;;;;14.04;83.94434;935.1147;;;;
2019/10/09 04:07:28;;;;;;;4.3;2.1;;;;;;;14.02;84.2041;935.0981;;;;
2019/10/09 04:09:55;;;;;;;4.5;2.1;;;;;;;13.9;84.71094;935.1692;;;;
2019/10/09 04:13:11;;;;;;;4.5;2.6;;;;;;;13.55;86.68848;935.2842;;;;
2019/10/09 04:15:32;;;;;;;6.4;2.8;;;;;;;13.62;86.39258;935.236;;;;
2019/10/09 04:18:01;;;;;;;5.4;2.6;;;;;;;13.58;86.41992;935.2272;;;;
2019/10/09 04:20:27;;;;;;;6.3;2.7;;;;;;;13.72;85.97559;935.2793;;;;
2019/10/09 04:22:54;;;;;;;5.7;2.4;;;;;;;13.91;85.33398;935.3493;;;;
2019/10/09 04:25:21;;;;;;;4.2;2.6;;;;;;;13.89;85.35156;935.4008;;;;
2019/10/09 04:27:53;;;;;;;5.7;2.9;;;;;;;13.91;85.36816;935.4637;;;;
2019/10/09 04:30:27;;;;;;;5.9;3.4;;;;;;;13.99;85.19043;935.4294;;;;
2019/10/09 04:32:57;;;;;;;7;3.8;;;;;;;13.86;85.70313;935.4754;;;;
2019/10/09 04:35:23;;;;;;;7.6;3.3;;;;;;;13.85;86.03516;935.5291;;;;
2019/10/09 04:37:52;;;;;;;5.8;3.1;;;;;;;13.67;87.46191;935.4941;;;;
2019/10/09 04:40:22;;;;;;;3.9;2.5;;;;;;;13.51;89.73828;935.4741;;;;
2019/10/09 04:42:51;;;;;;;9.6;5.7;;;;;;;13.7;88.59375;935.4306;;;;
2019/10/09 04:45:16;;;;;;;6.2;3.6;;;;;;;13.92;87.85547;935.4221;;;;
2019/10/09 04:47:43;;;;;;;7.1;3.7;;;;;;;14.02;87.67969;935.5889;;;;
2019/10/09 04:50:07;;;;;;;4;1.8;;;;;;;14.04;88.10938;935.6208;;;;
2019/10/09 04:52:31;;;;;;;3.9;1.6;;;;;;;14.09;88.56934;935.694;;;;
2019/10/09 04:54:58;;;;;;;3.9;1.6;;;;;;;14.08;88.83203;935.6172;;;;
2019/10/09 04:57:23;;;;;;;2.7;1.5;;;;;;;14.21;88.24805;935.6729;;;;
2019/10/09 04:59:51;;;;;;;3.9;1.2;;;;;;;14.33;87.44238;935.5287;;;;
2019/10/09 05:02:14;;;;;;;3.2;1.3;;;;;;;14.37;87.6123;935.4819;;;;
2019/10/09 05:04:42;;;;;;;3.1;1.7;;;;;;;14.45;87.14551;935.4025;;;;
2019/10/09 05:07:07;;;;;;;4.5;2.2;;;;;;;14.48;85.90625;935.2452;;;;
2019/10/09 05:09:32;;;;;;;4.4;2.2;;;;;;;14.5;85.57715;935.2088;;;;
2019/10/09 05:12:09;;;;;;;5.2;2.6;;;;;;;14.49;84.97266;935.1;;;;
2019/10/09 05:14:32;;;;;;;5.6;2.8;;;;;;;;;;;;;
2019/10/09 05:16:59;;;;;;;5.5;2.7;;;;;;;;;;;;;
2019/10/09 05:19:22;;;;;;;4.4;2.8;;;;;;;;;;;;;
2019/10/09 05:21:52;;;;;;;5;2.7;;;;;;;;;;;;;
2019/10/09 05:24:13;;;;;;;6.3;2.7;;;;;;;;;;;;;
2019/10/09 05:26:39;;;;;;;8;2.9;;;;;;;;;;;;;
2019/10/09 05:29:13;;;;;;;4.6;2.7;;;;;;;;;;;;;
2019/10/09 05:31:40;;;;;;;7.4;3.3;;;;;;;;;;;;;
2019/10/09 05:34:05;;;;;;;9.6;3.1;;;;;;;;;;;;;
2019/10/09 05:36:33;;;;;;;6.3;4.1;;;;;;;;;;;;;
2019/10/09 05:38:57;;;;;;;6.6;4.8;;;;;;;;;;;;;
2019/10/09 05:41:21;;;;;;;9.4;7.2;;;;;;;;;;;;;
2019/10/09 05:43:47;;;;;;;10.2;8;;;;;;;;;;;;;
2019/10/09 05:46:17;;;;;;;7.2;4;;;;;;;;;;;;;
2019/10/09 05:48:39;;;;;;;4.8;3.2;;;;;;;;;;;;;
2019/10/09 05:51:05;;;;;;;3.2;2.1;;;;;;;;;;;;;
2019/10/09 05:53:29;;;;;;;2.5;1.3;;;;;;;;;;;;;
2019/10/09 05:55:59;;;;;;;2.5;1.2;;;;;;;;;;;;;
2019/10/09 05:58:21;;;;;;;2.3;0.9;;;;;;;;;;;;;
2019/10/09 06:00:47;;;;;;;1.8;1.1;;;;;;;;;;;;;
2019/10/09 06:03:16;;;;;;;2.5;1.2;;;;;;;;;;;;;
2019/10/09 06:05:38;;;;;;;2.2;1.4;;;;;;;;;;;;;
2019/10/09 06:08:04;;;;;;;1.5;1.1;;;;;;;;;;;;;
2019/10/09 06:13:18;;;;;;;0.9;0.7;;;;;;;;;;;;;
2019/10/09 06:15:43;;;;;;;0.7;0.6;;;;;;;;;;;;;
2019/10/09 06:18:15;;;;;;;0.9;0.6;;;;;;;;;;;;;
2019/10/09 06:20:37;;;;;;;1.4;0.6;;;;;;;;;;;;;
2019/10/09 06:23:07;;;;;;;1.3;0.7;;;;;;;;;;;;;
2019/10/09 06:25:33;;;;;;;2.1;0.6;;;;;;;;;;;;;
2019/10/09 06:27:55;;;;;;;1.4;0.7;;;;;;;;;;;;;
2019/10/09 06:30:21;;;;;;;2.2;0.7;;;;;;;;;;;;;
2019/10/09 06:32:48;;;;;;;0.9;0.6;;;;;;;;;;;;;
2019/10/09 06:35:13;;;;;;;0.7;0.5;;;;;;;;;;;;;
2019/10/09 06:37:37;;;;;;;1;0.7;;;;;;;;;;;;;
2019/10/09 06:40:00;;;;;;;1.2;0.6;;;;;;;;;;;;;
2019/10/09 06:42:29;;;;;;;1.1;0.7;;;;;;;;;;;;;
2019/10/09 06:47:21;;;;;;;1;0.6;;;;;;;;;;;;;
2019/10/09 06:49:51;;;;;;;2.3;0.7;;;;;;;;;;;;;
2019/10/09 06:52:16;;;;;;;2;0.7;;;;;;;;;;;;;
2019/10/09 06:54:42;;;;;;;2.2;0.8;;;;;;;;;;;;;
2019/10/09 06:57:13;;;;;;;1.2;0.6;;;;;;;;;;;;;
2019/10/09 06:59:34;;;;;;;2.3;0.7;;;;;;;;;;;;;
2019/10/09 07:02:01;;;;;;;2.5;0.8;;;;;;;;;;;;;
2019/10/09 07:04:25;;;;;;;2.5;0.9;;;;;;;;;;;;;
2019/10/09 07:06:50;;;;;;;2.3;0.7;;;;;;;;;;;;;
2019/10/09 07:09:19;;;;;;;1.9;0.9;;;;;;;;;;;;;
2019/10/09 07:11:41;;;;;;;2.3;1.1;;;;;;;;;;;;;
2019/10/09 07:14:07;;;;;;;1.6;0.8;;;;;;;;;;;;;
2019/10/09 07:16:50;;;;;;;2;1.1;;;;;;;;;;;;;
2019/10/09 07:19:16;;;;;;;2;1.1;;;;;;;;;;;;;
2019/10/09 07:21:36;;;;;;;3.4;1;;;;;;;;;;;;;
2019/10/09 07:24:01;;;;;;;2.6;1;;;;;;;;;;;;;
2019/10/09 07:26:25;;;;;;;3.1;1;;;;;;;;;;;;;
2019/10/09 07:28:54;;;;;;;2;0.9;;;;;;;;;;;;;
2019/10/09 07:31:16;;;;;;;2.5;0.7;;;;;;;;;;;;;
2019/10/09 07:33:52;;;;;;;2.1;0.9;;;;;;;;;;;;;
2019/10/09 07:36:13;;;;;;;2.8;0.8;;;;;;;;;;;;;
2019/10/09 07:38:36;;;;;;;5.3;0.9;;;;;;;;;;;;;
2019/10/09 07:41:02;;;;;;;2.6;0.7;;;;;;;;;;;;;
2019/10/09 07:43:33;;;;;;;2.3;0.8;;;;;;;;;;;;;
2019/10/09 07:45:55;;;;;;;3.4;0.8;;;;;;;;;;;;;
2019/10/09 07:48:33;;;;;;;3.4;1;;;;;;;;;;;;;
2019/10/09 07:50:51;;;;;;;1.7;0.7;;;;;;;;;;;;;
2019/10/09 07:53:19;;;;;;;1.4;0.7;;;;;;;;;;;;;
2019/10/09 07:55:55;;;;;;;4;0.8;;;;;;;;;;;;;
2019/10/09 07:58:10;;;;;;;2.4;1.2;;;;;;;;;;;;;
2019/10/09 08:03:12;;;;;;;1.3;0.8;;;;;;;;;;;;;
2019/10/09 08:05:38;;;;;;;1.7;1;;;;;;;;;;;;;
2019/10/09 08:08:08;;;;;;;1.7;0.8;;;;;;;;;;;;;
2019/10/09 08:10:30;;;;;;;0.7;0.6;;;;;;;;;;;;;
2019/10/09 08:12:54;;;;;;;2.2;0.8;;;;;;;;;;;;;
2019/10/09 08:15:28;;;;;;;2.1;0.8;;;;;;;;;;;;;
2019/10/09 08:17:53;;;;;;;2;0.7;;;;;;;;;;;;;
2019/10/09 08:20:25;;;;;;;2.2;0.8;;;;;;;;;;;;;
2019/10/09 08:22:50;;;;;;;2.1;1.1;;;;;;;;;;;;;
2019/10/09 08:25:13;;;;;;;2.4;0.9;;;;;;;;;;;;;
2019/10/09 08:27:54;;;;;;;3;1.1;;;;;;;;;;;;;
2019/10/09 08:30:09;;;;;;;2.3;1.2;;;;;;;;;;;;;
2019/10/09 08:32:39;;;;;;;4.8;1.4;;;;;;;;;;;;;
2019/10/09 08:35:03;;;;;;;3.1;1.2;;;;;;;;;;;;;
2019/10/09 08:37:33;;;;;;;3.3;1.4;;;;;;;;;;;;;
2019/10/09 08:39:57;;;;;;;2.2;1.3;;;;;;;;;;;;;
2019/10/09 08:42:37;;;;;;;2.5;1.3;;;;;;;;;;;;;
2019/10/09 08:44:52;;;;;;;1.8;0.8;;;;;;;;;;;;;
2019/10/09 08:47:18;;;;;;;3.5;0.8;;;;;;;;;;;;;
2019/10/09 08:49:45;;;;;;;0.7;0.5;;;;;;;;;;;;;
2019/10/09 08:52:13;;;;;;;1.8;0.7;;;;;;;;;;;;;
2019/10/09 08:54:36;;;;;;;2;0.7;;;;;;;;;;;;;
2019/10/09 08:57:01;;;;;;;1;0.6;;;;;;;;;;;;;
2019/10/09 08:59:30;;;;;;;1.3;0.6;;;;;;;;;;;;;
2019/10/09 09:02:16;;;;;;;1.1;0.7;;;;;;;;;;;;;
2019/10/09 09:04:39;;;;;;;1.6;0.8;;;;;;;;;;;;;
2019/10/09 09:07:10;;;;;;;1.8;0.9;;;;;;;;;;;;;
2019/10/09 09:09:30;;;;;;;1.4;0.6;;;;;;;;;;;;;
2019/10/09 09:12:01;;;;;;;1.9;0.6;;;;;;;;;;;;;
2019/10/09 09:14:31;;;;;;;1;0.6;;;;;;;;;;;;;
2019/10/09 09:16:50;;;;;;;1.9;0.9;;;;;;;;;;;;;
2019/10/09 09:19:25;;;;;;;1.4;0.9;;;;;;;;;;;;;
2019/10/09 09:21:43;;;;;;;1.8;0.9;;;;;;;;;;;;;
2019/10/09 09:24:09;;;;;;;1.4;0.9;;;;;;;;;;;;;
2019/10/09 09:28:59;;;;;;;2.5;1.2;;;;;;;;;;;;;
2019/10/09 09:31:27;;;;;;;2.9;1.1;;;;;;;;;;;;;
2019/10/09 09:33:50;;;;;;;1.3;0.9;;;;;;;;;;;;;
2019/10/09 09:36:21;;;;;;;2.8;0.9;;;;;;;;;;;;;
2019/10/09 09:38:46;;;;;;;0.8;0.5;;;;;;;;;;;;;
2019/10/09 09:41:09;;;;;;;1.4;0.7;;;;;;;;;;;;;
2019/10/09 09:43:33;;;;;;;2;0.8;;;;;;;;;;;;;
2019/10/09 09:46:16;;;;;;;1.3;0.7;;;;;;;;;;;;;
2019/10/09 09:48:32;;;;;;;1.3;0.8;;;;;;;;;;;;;
2019/10/09 09:51:02;;;;;;;2.1;1;;;;;;;;;;;;;
2019/10/09 09:53:27;;;;;;;1.8;1;;;;;;;;;;;;;
2019/10/09 09:55:58;;;;;;;3.2;1.1;;;;;;;;;;;;;
2019/10/09 09:58:22;;;;;;;3.5;1.3;;;;;;;;;;;;;
2019/10/09 10:00:44;;;;;;;2.4;1.1;;;;;;;;;;;;;
2019/10/09 10:03:07;;;;;;;2.7;1.3;;;;;;;;;;;;;
2019/10/09 10:05:33;;;;;;;2.8;1.1;;;;;;;;;;;;;
2019/10/09 10:08:04;;;;;;;3.9;1.4;;;;;;;;;;;;;
2019/10/09 10:10:23;;;;;;;2.1;1;;;;;;;;;;;;;
2019/10/09 10:12:49;;;;;;;2.5;1.3;;;;;;;;;;;;;
2019/10/09 10:15:16;;;;;;;2.5;1.2;;;;;;;;;;;;;
2019/10/09 10:17:41;;;;;;;2.9;1.1;;;;;;;;;;;;;
2019/10/09 10:20:06;;;;;;;3.4;1.2;;;;;;;;;;;;;
2019/10/09 10:22:31;;;;;;;4.4;1.5;;;;;;;;;;;;;
2019/10/09 10:24:58;;;;;;;1.8;1.1;;;;;;;;;;;;;
2019/10/09 10:27:26;;;;;;;2.5;1.2;;;;;;;;;;;;;
2019/10/09 10:29:48;;;;;;;1.6;1;;;;;;;;;;;;;
2019/10/09 10:32:16;;;;;;;3.5;1.4;;;;;;;;;;;;;
2019/10/09 10:34:49;;;;;;;4;1.3;;;;;;;;;;;;;
2019/10/09 10:37:22;;;;;;;3.1;1.4;;;;;;;;;;;;;
2019/10/09 10:39:46;;;;;;;3.5;1.6;;;;;;;;;;;;;
2019/10/09 10:42:12;;;;;;;3.5;1.3;;;;;;;;;;;;;
2019/10/09 10:44:50;;;;;;;2.6;1.4;;;;;;;;;;;;;
2019/10/09 10:47:10;;;;;;;2.6;1.3;;;;;;;;;;;;;
2019/10/09 10:49:35;;;;;;;1.9;1.2;;;;;;;;;;;;;
2019/10/09 10:52:00;;;;;;;2.9;1.5;;;;;;;;;;;;;
2019/10/09 10:54:28;;;;;;;3.7;1.5;;;;;;;;;;;;;
2019/10/09 10:56:53;;;;;;;3.8;1.5;;;;;;;;;;;;;
2019/10/09 10:59:21;;;;;;;2.3;1.3;;;;;;;;;;;;;
2019/10/09 11:01:48;;;;;;;3.1;1.5;;;;;;;;;;;;;
2019/10/09 11:04:11;;;;;;;3.7;1.5;;;;;;;;;;;;;
2019/10/09 11:06:39;;;;;;;3.8;1.4;;;;;;;;;;;;;
2019/10/09 11:09:06;;;;;;;2.9;1.4;;;;;;;;;;;;;
2019/10/09 11:14:14;;;;;;;4.4;1.8;;;;;;;;;;;;;
2019/10/09 11:16:44;;;;;;;5.2;2.2;;;;;;;;;;;;;
2019/10/09 11:19:11;;;;;;;3.9;1.9;;;;;;;;;;;;;
2019/10/09 11:21:41;;;;;;;6.5;2;;;;;;;;;;;;;
2019/10/09 11:24:03;;;;;;;6.4;2.8;;;;;;;;;;;;;
2019/10/09 11:26:28;;;;;;;7.8;3.3;;;;;;;;;;;;;
2019/10/09 11:30:22;;;;;;;8.4;3.5;;;;;;;;;;;;;
2019/10/09 11:31:55;;;;;;;5.2;2.3;;;;;;;;;;;;;
2019/10/09 11:34:17;;;;;;;7.3;2.2;;;;;;;;;;;;;
2019/10/09 11:40:12;;;;;;;3.1;1.4;;;;;;;;;;;;;
2019/10/09 11:42:36;;;;;;;4.3;1.3;;;;;;;;;;;;;
2019/10/09 11:44:59;;;;;;;4;1.2;;;;;;;;;;;;;
2019/10/09 11:47:50;;;;;;;3;1;;;;;;;;;;;;;
2019/10/09 11:52:47;;;;;;;2;1.2;;;;;;;;;;;;;
2019/10/09 11:55:02;;;;;;;1.9;1.2;;;;;;;;;;;;;
2019/10/09 11:57:32;;;;;;;2.9;2.2;;;;;;;;;;;;;
2019/10/09 12:00:03;;;;;;;1.5;0.9;;;;;;;;;;;;;
2019/10/09 12:02:24;;;;;;;2.1;0.9;;;;;;;;;;;;;
2019/10/09 12:04:52;;;;;;;1.6;0.9;;;;;;;;;;;;;
2019/10/09 12:07:16;;;;;;;1.9;0.9;;;;;;;;;;;;;
2019/10/09 12:09:44;;;;;;;2.5;1.1;;;;;;;;;;;;;
2019/10/09 12:12:07;;;;;;;2.7;1.3;;;;;;;;;;;;;
2019/10/09 12:14:30;;;;;;;1.5;0.9;;;;;;;;;;;;;
2019/10/09 12:16:57;;;;;;;1.3;0.8;;;;;;;;;;;;;
2019/10/09 12:19:25;;;;;;;1.7;0.7;;;;;;;;;;;;;
2019/10/09 12:21:51;;;;;;;2;0.7;;;;;;;;;;;;;
2019/10/09 12:24:21;;;;;;;3.8;1.1;;;;;;;;;;;;;
2019/10/09 12:26:47;;;;;;;1.5;0.6;;;;;;;;;;;;;
2019/10/09 12:29:24;;;;;;;2.7;0.7;;;;;;;;;;;;;
2019/10/09 12:31:39;;;;;;;1.7;0.7;;;;;;;;;;;;;
2019/10/09 12:34:05;;;;;;;1.1;0.7;;;;;;;;;;;;;
2019/10/09 12:36:27;;;;;;;2.2;0.9;;;;;;;;;;;;;
2019/10/09 12:38:52;;;;;;;1.5;0.9;;;;;;;;;;;;;
2019/10/09 12:41:21;;;;;;;2;1.5;;;;;;;;;;;;;
2019/10/09 12:43:45;;;;;;;2.3;1.3;;;;;;;;;;;;;
2019/10/09 12:46:09;;;;;;;2.6;1.8;;;;;;;;;;;;;
2019/10/09 12:48:43;;;;;;;3.6;2.3;;;;;;;;;;;;;
2019/10/09 12:53:26;;;;;;;8.1;4.6;;;;;;;;;;;;;
2019/10/09 12:55:51;;;;;;;37.4;32.1;;;;;;;;;;;;;
2019/10/09 12:58:21;;;;;;;6.8;5.5;;;;;;;;;;;;;
2019/10/09 13:00:45;;;;;;;5.4;3.1;;;;;;;;;;;;;
2019/10/09 13:03:09;;;;;;;12.7;11.5;;;;;;;;;;;;;
2019/10/09 13:06:16;;;;;;;3;2.1;;;;;;;;;;;;;
2019/10/09 13:08:33;;;;;;;3.8;2.6;;;;;;;;;;;;;
2019/10/09 13:11:46;;;;;;;4.1;3;;;;;;;;;;;;;
2019/10/09 13:13:26;;;;;;;5.4;4.5;;;;;;;;;;;;;
2019/10/09 13:15:52;;;;;;;4.1;3;;;;;;;;;;;;;
2019/10/09 13:18:15;;;;;;;5.3;3.2;;;;;;;;;;;;;
2019/10/09 13:20:40;;;;;;;3.6;2.5;;;;;;;;;;;;;
2019/10/09 13:23:08;;;;;;;2.3;1.5;;;;;;;;;;;;;
2019/10/09 13:25:36;;;;;;;4;2.1;;;;;;;;;;;;;
2019/10/09 13:28:04;;;;;;;4.1;2.4;;;;;;;;;;;;;
2019/10/09 13:30:28;;;;;;;3.7;2;;;;;;;;;;;;;
2019/10/09 13:32:51;;;;;;;1.7;1.1;;;;;;;;;;;;;
2019/10/09 13:35:16;;;;;;;3;1.9;;;;;;;;;;;;;
2019/10/09 13:37:42;;;;;;;3.6;1.6;;;;;;;;;;;;;
2019/10/09 13:40:07;;;;;;;3.1;1.6;;;;;;;;;;;;;
2019/10/09 13:42:33;;;;;;;4.2;2.3;;;;;;;;;;;;;
2019/10/09 13:44:57;;;;;;;4.8;3.2;;;;;;;;;;;;;
2019/10/09 13:47:22;;;;;;;4.4;1.6;;;;;;;;;;;;;
2019/10/09 13:49:48;;;;;;;2.6;1.8;;;;;;;;;;;;;
2019/10/09 13:52:15;;;;;;;3.8;2.1;;;;;;;;;;;;;
2019/10/09 13:54:39;;;;;;;5.1;2.4;;;;;;;;;;;;;
2019/10/09 13:57:04;;;;;;;4;1.5;;;;;;;;;;;;;
2019/10/09 14:02:09;;;;;;;1.9;0.7;;;;;;;;;;;;;
2019/10/09 14:04:35;;;;;;;2.1;0.8;;;;;;;;;;;;;
2019/10/09 14:07:01;;;;;;;2.3;1.4;;;;;;;;;;;;;
2019/10/09 14:09:25;;;;;;;2.8;1.5;;;;;;;;;;;;;
2019/10/09 14:11:55;;;;;;;4.3;2.1;;;;;;;;;;;;;
2019/10/09 14:14:20;;;;;;;1.5;1;;;;;;;;;;;;;
2019/10/09 14:16:48;;;;;;;2.2;1.1;;;;;;;;;;;;;
2019/10/09 14:19:14;;;;;;;3.9;1.1;;;;;;;;;;;;;
2019/10/09 14:21:41;;;;;;;2.3;1.1;;;;;;;;;;;;;
2019/10/09 14:24:21;;;;;;;2;1.1;;;;;;;;;;;;;
2019/10/09 14:26:34;;;;;;;1.1;0.8;;;;;;;;;;;;;
2019/10/09 14:29:15;;;;;;;1.2;0.7;;;;;;;;;;;;;
2019/10/09 14:31:30;;;;;;;2.1;0.5;;;;;;;;;;;;;
2019/10/09 14:33:54;;;;;;;1.8;0.5;;;;;;;;;;;;;
2019/10/09 14:36:24;;;;;;;1.3;0.5;;;;;;;;;;;;;
2019/10/09 14:38:46;;;;;;;12;10.2;;;;;;;;;;;;;
2019/10/09 14:41:12;;;;;;;5.4;3.5;;;;;;;;;;;;;
2019/10/09 14:50:55;;;;;;;2.5;1.6;;;;;;;;;;;;;
2019/10/09 14:53:26;;;;;;;3.5;1.5;;;;;;;;;;;;;
2019/10/09 14:58:21;;;;;;;4.7;2.3;;;;;;;;;;;;;
2019/10/09 15:00:49;;;;;;;1.4;0.9;;;;;;;;;;;;;
2019/10/09 15:03:15;;;;;;;4.2;2.5;;;;;;;;;;;;;
2019/10/09 15:05:42;;;;;;;4.5;2.7;;;;;;;;;;;;;
2019/10/09 15:08:05;;;;;;;2.5;1.5;;;;;;;;;;;;;
2019/10/09 15:10:28;;;;;;;2.5;1.2;;;;;;;;;;;;;
2019/10/09 15:13:19;;;;;;;3.6;1.6;;;;;;;;;;;;;
2019/10/09 15:15:34;;;;;;;3.8;1.3;;;;;;;;;;;;;
2019/10/09 15:18:02;;;;;;;2.7;1.6;;;;;;;;;;;;;
2019/10/09 15:20:31;;;;;;;4.6;2.2;;;;;;;;;;;;;
2019/10/09 15:22:58;;;;;;;7.5;4.1;;;;;;;;;;;;;
2019/10/09 15:25:23;;;;;;;9;4.7;;;;;;;;;;;;;
2019/10/09 15:27:48;;;;;;;4.6;2.9;;;;;;;;;;;;;
2019/10/09 15:33:13;;;;;;;8.3;5.5;;;;;;;;;;;;;
2019/10/09 15:36:16;;;;;;;4.3;3.1;;;;;;;;;;;;;
2019/10/09 15:38:26;;;;;;;5;3.6;;;;;;;;;;;;;
2019/10/09 15:40:52;;;;;;;6.9;4.2;;;;;;;;;;;;;
2019/10/09 15:43:16;;;;;;;7.2;3.2;;;;;;;;;;;;;
2019/10/09 15:45:44;;;;;;;4.8;2.1;;;;;;;;;;;;;
2019/10/09 15:48:20;;;;;;;3.9;3.1;;;;;;;;;;;;;
2019/10/09 15:50:33;;;;;;;9;6.1;;;;;;;;;;;;;
2019/10/09 15:53:00;;;;;;;5.4;3.8;;;;;;;;;;;;;
2019/10/09 15:55:26;;;;;;;4.9;3.6;;;;;;;;;;;;;
2019/10/09 15:57:53;;;;;;;3.8;2.4;;;;;;;;;;;;;
2019/10/09 16:00:15;;;;;;;3.6;3;;;;;;;;;;;;;
2019/10/09 16:02:45;;;;;;;5.6;4.1;;;;;;;;;;;;;
2019/10/09 16:05:07;;;;;;;7;4.6;;;;;;;;;;;;;
2019/10/09 16:07:36;;;;;;;5.5;4.6;;;;;;;;;;;;;
2019/10/09 16:09:57;;;;;;;6;3.6;;;;;;;;;;;;;
2019/10/09 16:12:30;;;;;;;5.4;3.4;;;;;;;;;;;;;
2019/10/09 16:14:50;;;;;;;5.7;3.1;;;;;;;;;;;;;
2019/10/09 16:17:14;;;;;;;6.3;3.1;;;;;;;;;;;;;
2019/10/09 16:22:27;;;;;;;5.8;4.5;;;;;;;;;;;;;
2019/10/09 16:24:53;;;;;;;6.9;5;;;;;;;;;;;;;
2019/10/09 16:27:15;;;;;;;8.4;5.1;;;;;;;;;;;;;
2019/10/09 16:29:40;;;;;;;4.7;3.4;;;;;;;;;;;;;
2019/10/09 16:32:05;;;;;;;4.9;3.5;;;;;;;;;;;;;
2019/10/09 16:34:34;;;;;;;2.7;1.9;;;;;;;;;;;;;
2019/10/09 16:37:29;;;;;;;4.5;2.1;;;;;;;;;;;;;
2019/10/09 16:39:22;;;;;;;2.4;1.5;;;;;;;;;;;;;
2019/10/09 16:41:52;;;;;;;3.2;1.8;;;;;;;;;;;;;
2019/10/09 16:44:18;;;;;;;3.6;2.5;;;;;;;;;;;;;
2019/10/09 16:47:17;;;;;;;4.4;2.3;;;;;;;;;;;;;
2019/10/09 16:49:39;;;;;;;4.1;2.6;;;;;;;;;;;;;
2019/10/09 16:52:03;;;;;;;5.9;2.9;;;;;;;;;;;;;
2019/10/09 16:54:29;;;;;;;6.6;5.1;;;;;;;;;;;;;
2019/10/09 16:56:58;;;;;;;5.4;3.5;;;;;;;;;;;;;
2019/10/09 16:59:23;;;;;;;6.8;3.5;;;;;;;;;;;;;
2019/10/09 17:01:47;;;;;;;6.1;4;;;;;;;;;;;;;
2019/10/09 17:04:20;;;;;;;5.4;3.3;;;;;;;;;;;;;
2019/10/09 17:06:59;;;;;;;5.6;3.8;;;;;;;;;;;;;
2019/10/09 17:09:21;;;;;;;9.3;7.2;;;;;;;;;;;;;
2019/10/09 17:11:39;;;;;;;5.1;4.3;;;;;;;;;;;;;
2019/10/09 17:14:01;;;;;;;6.1;4.1;;;;;;;;;;;;;
2019/10/09 17:16:27;;;;;;;16;14.3;;;;;;;;;;;;;
2019/10/09 17:19:18;;;;;;;17.7;15.8;;;;;;;;;;;;;
2019/10/09 17:21:30;;;;;;;11.7;10.5;;;;;;;;;;;;;
2019/10/09 17:23:56;;;;;;;14.1;9.6;;;;;;;;;;;;;
2019/10/09 17:26:19;;;;;;;23.3;19.3;;;;;;;;;;;;;
2019/10/09 17:28:53;;;;;;;30.6;21.2;;;;;;;;;;;;;
2019/10/09 17:31:17;;;;;;;19.6;14.8;;;;;;;;;;;;;
2019/10/09 17:33:47;;;;;;;16.7;12;;;;;;;;;;;;;
2019/10/09 17:36:11;;;;;;;15.2;10.7;;;;;;;;;;;;;
2019/10/09 17:41:28;;;;;;;20.5;15.5;;;;;;;;;;;;;
2019/10/09 17:43:55;;;;;;;15.5;10.1;;;;;;;;;;;;;
2019/10/09 17:46:23;;;;;;;12.6;8.7;;;;;;;;;;;;;
2019/10/09 17:48:52;;;;;;;8;5.7;;;;;;;;;;;;;
2019/10/09 17:51:19;;;;;;;8.1;5.3;;;;;;;;;;;;;
2019/10/09 17:53:41;;;;;;;7.6;5.2;;;;;;;;;;;;;
2019/10/09 17:56:05;;;;;;;6.7;5.1;;;;;;;;;;;;;
2019/10/09 17:58:34;;;;;;;6.2;4.9;;;;;;;;;;;;;
2019/10/09 18:00:55;;;;;;;4.7;3.8;;;;;;;;;;;;;
2019/10/09 18:03:19;;;;;;;4.8;3.7;;;;;;;;;;;;;
2019/10/09 18:05:45;;;;;;;8.9;5.1;;;;;;;;;;;;;
2019/10/09 18:08:10;;;;;;;7.9;6.3;;;;;;;;;;;;;
2019/10/09 18:10:36;;;;;;;10.1;7.4;;;;;;;;;;;;;
2019/10/09 18:13:02;;;;;;;12.6;9.6;;;;;;;;;;;;;
2019/10/09 18:20:20;;;;;;;7.5;6.7;;;;;;;;;;;;;
2019/10/09 18:22:43;;;;;;;8.3;6.5;;;;;;;;;;;;;
2019/10/09 18:25:07;;;;;;;9.1;8;;;;;;;;;;;;;
2019/10/09 18:27:39;;;;;;;7;5.6;;;;;;;;;;;;;
2019/10/09 18:30:16;;;;;;;8;5.4;;;;;;;;;;;;;
2019/10/09 18:32:34;;;;;;;10;5.2;;;;;;;;;;;;;
2019/10/09 18:35:06;;;;;;;4.2;3.4;;;;;;;;;;;;;
2019/10/09 18:37:31;;;;;;;5.9;4;;;;;;;;;;;;;
2019/10/09 18:39:54;;;;;;;14.6;13.2;;;;;;;;;;;;;
2019/10/09 18:42:19;;;;;;;13.9;12.5;;;;;;;;;;;;;
2019/10/09 18:44:50;;;;;;;7.6;6;;;;;;;;;;;;;
2019/10/09 18:47:18;;;;;;;7;6.1;;;;;;;;;;;;;
2019/10/09 18:52:31;;;;;;;22.1;20;;;;;;;;;;;;;
2019/10/09 18:54:54;;;;;;;26.8;24.2;;;;;;;;;;;;;
2019/10/09 18:57:47;;;;;;;40.7;36.7;;;;;;;;;;;;;
2019/10/09 18:59:45;;;;;;;31;28;;;;;;;;;;;;;
2019/10/09 19:02:15;;;;;;;13;11.4;;;;;;;;;;;;;
2019/10/09 19:04:42;;;;;;;12.2;10.2;;;;;;;;;;;;;
2019/10/09 19:07:04;;;;;;;9.6;8.3;;;;;;;;;;;;;
2019/10/09 19:09:31;;;;;;;7.8;5.9;;;;;;;;;;;;;
2019/10/09 19:11:56;;;;;;;15.1;12.4;;;;;;;;;;;;;
2019/10/09 19:14:24;;;;;;;15.2;13.6;;;;;;;;;;;;;
2019/10/09 19:16:47;;;;;;;12.7;9.7;;;;;;;;;;;;;
2019/10/09 19:19:31;;;;;;;8.8;7.7;;;;;;;;;;;;;
2019/10/09 19:21:42;;;;;;;9.3;8;;;;;;;;;;;;;
2019/10/09 19:24:13;;;;;;;11;9.9;;;;;;;;;;;;;
2019/10/09 19:26:36;;;;;;;7.2;6.5;;;;;;;;;;;;;
2019/10/09 19:28:59;;;;;;;6.9;5.6;;;;;;;;;;;;;
2019/10/09 19:31:25;;;;;;;4.3;3.4;;;;;;;;;;;;;
2019/10/09 19:33:53;;;;;;;8.5;5.5;;;;;;;;;;;;;
2019/10/09 19:36:21;;;;;;;5;4.2;;;;;;;;;;;;;
2019/10/09 19:38:49;;;;;;;7.7;5.3;;;;;;;;;;;;;
2019/10/09 19:41:31;;;;;;;6;5.4;;;;;;;;;;;;;
2019/10/09 19:44:18;;;;;;;4.4;3.5;;;;;;;;;;;;;
2019/10/09 19:46:27;;;;;;;4.4;2.2;;;;;;;;;;;;;
2019/10/09 19:49:04;;;;;;;6.3;4.1;;;;;;;;;;;;;
2019/10/09 19:51:26;;;;;;;3.4;2.6;;;;;;;;;;;;;
2019/10/09 19:56:20;;;;;;;4;2.7;;;;;;;;;;;;;
2019/10/09 19:58:45;;;;;;;3.3;1.9;;;;;;;;;;;;;
2019/10/09 20:01:07;;;;;;;2.9;1.9;;;;;;;;;;;;;
2019/10/09 20:03:36;;;;;;;3.1;1.9;;;;;;;;;;;;;
2019/10/09 20:05:59;;;;;;;4.4;3.7;;;;;;;;;;;;;
2019/10/09 20:08:24;;;;;;;2;1.1;;;;;;;;;;;;;
2019/10/09 20:10:49;;;;;;;2.1;1.5;;;;;;;;;;;;;
2019/10/09 20:13:19;;;;;;;2;1.5;;;;;;;;;;;;;
2019/10/09 20:15:43;;;;;;;2.2;1.2;;;;;;;;;;;;;
2019/10/09 20:18:06;;;;;;;2.6;1.4;;;;;;;;;;;;;
2019/10/09 20:20:35;;;;;;;2.8;1.7;;;;;;;;;;;;;
2019/10/09 20:22:57;;;;;;;2.3;1.2;;;;;;;;;;;;;
2019/10/09 20:25:23;;;;;;;1.9;1.2;;;;;;;;;;;;;
2019/10/09 20:27:48;;;;;;;2.6;1.2;;;;;;;;;;;;;
2019/10/09 20:30:17;;;;;;;2.7;1.1;;;;;;;;;;;;;
2019/10/09 20:32:37;;;;;;;3.2;1.1;;;;;;;;;;;;;
2019/10/09 20:35:04;;;;;;;4.1;2.4;;;;;;;;;;;;;
2019/10/09 20:37:28;;;;;;;2.6;1.9;;;;;;;;;;;;;
2019/10/09 20:39:53;;;;;;;3.4;2;;;;;;;;;;;;;
2019/10/09 20:42:21;;;;;;;3;1.9;;;;;;;;;;;;;
2019/10/09 20:44:43;;;;;;;3.5;1.9;;;;;;;;;;;;;
2019/10/09 20:47:08;;;;;;;3.1;1.6;;;;;;;;;;;;;
2019/10/09 20:49:36;;;;;;;2.6;1.8;;;;;;;;;;;;;
2019/10/09 20:52:01;;;;;;;4.1;1.7;;;;;;;;;;;;;
2019/10/09 20:54:24;;;;;;;5.1;2.5;;;;;;;;;;;;;
2019/10/09 20:56:49;;;;;;;2.6;1.9;;;;;;;;;;;;;
2019/10/09 20:59:14;;;;;;;5.4;4.1;;;;;;;;;;;;;
2019/10/09 21:01:42;;;;;;;5.8;3.8;;;;;;;;;;;;;
2019/10/09 21:04:04;;;;;;;4.4;2;;;;;;;;;;;;;